sensor_id;sensor_type;location;lat;lon;timestamp;P1;durP1;ratioP1;P2;durP2;ratioP2
21162;SDS011;10739;52.198;20.908;2023-07-13T00:00:19;13.90;;;10.32;;
21162;SDS011;10739;52.198;20.908;2023-07-13T00:02:45;15.77;;;10.45;;
21162;SDS011;10739;52.198;20.908;2023-07-13T00:05:12;13.52;;;9.85;;
21162;SDS011;10739;52.198;20.908;2023-07-13T00:07:38;17.65;;;10.73;;
21162;SDS011;10739;52.198;20.908;2023-07-13T00:10:04;13.40;;;10.63;;
21162;SDS011;10739;52.198;20.908;2023-07-13T00:12:33;13.90;;;10.45;;
21162;SDS011;10739;52.198;20.908;2023-07-13T00:15:04;12.68;;;10.27;;
21162;SDS011;10739;52.198;20.908;2023-07-13T00:17:41;15.65;;;10.68;;
21162;SDS011;10739;52.198;20.908;2023-07-13T00:20:11;13.07;;;10.68;;
21162;SDS011;10739;52.198;20.908;2023-07-13T00:22:37;14.05;;;11.00;;
21162;SDS011;10739;52.198;20.908;2023-07-13T00:25:04;15.88;;;11.30;;
21162;SDS011;10739;52.198;20.908;2023-07-13T00:27:30;13.07;;;10.52;;
21162;SDS011;10739;52.198;20.908;2023-07-13T00:29:57;16.60;;;10.77;;
21162;SDS011;10739;52.198;20.908;2023-07-13T00:32:24;12.48;;;11.25;;
21162;SDS011;10739;52.198;20.908;2023-07-13T00:34:51;18.48;;;12.45;;
21162;SDS011;10739;52.198;20.908;2023-07-13T00:37:18;15.40;;;11.48;;
21162;SDS011;10739;52.198;20.908;2023-07-13T00:39:44;13.55;;;11.43;;
21162;SDS011;10739;52.198;20.908;2023-07-13T00:42:10;16.70;;;12.73;;
21162;SDS011;10739;52.198;20.908;2023-07-13T00:44:37;15.63;;;12.30;;
21162;SDS011;10739;52.198;20.908;2023-07-13T00:47:05;19.08;;;13.02;;
21162;SDS011;10739;52.198;20.908;2023-07-13T00:49:32;17.73;;;13.57;;
21162;SDS011;10739;52.198;20.908;2023-07-13T00:52:07;15.93;;;12.13;;
21162;SDS011;10739;52.198;20.908;2023-07-13T00:54:39;17.60;;;12.93;;
21162;SDS011;10739;52.198;20.908;2023-07-13T00:57:12;16.88;;;12.07;;
21162;SDS011;10739;52.198;20.908;2023-07-13T00:59:46;14.85;;;11.23;;
21162;SDS011;10739;52.198;20.908;2023-07-13T01:02:20;16.02;;;11.77;;
21162;SDS011;10739;52.198;20.908;2023-07-13T01:04:47;13.95;;;10.85;;
21162;SDS011;10739;52.198;20.908;2023-07-13T01:07:13;14.55;;;10.98;;
21162;SDS011;10739;52.198;20.908;2023-07-13T01:09:40;16.80;;;11.90;;
21162;SDS011;10739;52.198;20.908;2023-07-13T01:12:07;13.77;;;12.00;;
21162;SDS011;10739;52.198;20.908;2023-07-13T01:14:33;13.82;;;11.50;;
21162;SDS011;10739;52.198;20.908;2023-07-13T01:17:00;14.95;;;11.75;;
21162;SDS011;10739;52.198;20.908;2023-07-13T01:19:33;18.52;;;11.90;;
21162;SDS011;10739;52.198;20.908;2023-07-13T01:22:10;16.38;;;12.75;;
21162;SDS011;10739;52.198;20.908;2023-07-13T01:24:40;19.20;;;12.57;;
21162;SDS011;10739;52.198;20.908;2023-07-13T01:27:10;16.73;;;12.05;;
21162;SDS011;10739;52.198;20.908;2023-07-13T01:29:40;14.60;;;12.32;;
21162;SDS011;10739;52.198;20.908;2023-07-13T01:32:09;13.65;;;12.07;;
21162;SDS011;10739;52.198;20.908;2023-07-13T01:34:38;15.98;;;12.38;;
21162;SDS011;10739;52.198;20.908;2023-07-13T01:37:08;17.17;;;13.02;;
21162;SDS011;10739;52.198;20.908;2023-07-13T01:39:35;20.80;;;14.38;;
21162;SDS011;10739;52.198;20.908;2023-07-13T01:42:03;14.68;;;13.05;;
21162;SDS011;10739;52.198;20.908;2023-07-13T01:44:30;17.33;;;13.80;;
21162;SDS011;10739;52.198;20.908;2023-07-13T01:46:56;21.58;;;14.60;;
21162;SDS011;10739;52.198;20.908;2023-07-13T01:49:23;20.42;;;14.70;;
21162;SDS011;10739;52.198;20.908;2023-07-13T01:51:49;15.65;;;13.88;;
21162;SDS011;10739;52.198;20.908;2023-07-13T01:54:15;16.63;;;13.68;;
21162;SDS011;10739;52.198;20.908;2023-07-13T01:56:41;18.35;;;13.50;;
21162;SDS011;10739;52.198;20.908;2023-07-13T01:59:08;18.95;;;14.45;;
21162;SDS011;10739;52.198;20.908;2023-07-13T02:01:35;17.95;;;14.02;;
21162;SDS011;10739;52.198;20.908;2023-07-13T02:04:01;16.20;;;14.43;;
21162;SDS011;10739;52.198;20.908;2023-07-13T02:06:28;15.27;;;13.68;;
21162;SDS011;10739;52.198;20.908;2023-07-13T02:08:54;16.95;;;14.38;;
21162;SDS011;10739;52.198;20.908;2023-07-13T02:11:21;21.63;;;13.63;;
21162;SDS011;10739;52.198;20.908;2023-07-13T02:13:47;17.85;;;14.38;;
21162;SDS011;10739;52.198;20.908;2023-07-13T02:16:13;18.45;;;14.05;;
21162;SDS011;10739;52.198;20.908;2023-07-13T02:18:40;17.42;;;13.30;;
21162;SDS011;10739;52.198;20.908;2023-07-13T02:21:06;20.35;;;13.82;;
21162;SDS011;10739;52.198;20.908;2023-07-13T02:23:33;18.05;;;13.52;;
21162;SDS011;10739;52.198;20.908;2023-07-13T02:26:00;17.02;;;13.90;;
21162;SDS011;10739;52.198;20.908;2023-07-13T02:28:28;17.60;;;12.40;;
21162;SDS011;10739;52.198;20.908;2023-07-13T02:30:54;19.63;;;15.10;;
21162;SDS011;10739;52.198;20.908;2023-07-13T02:33:20;18.10;;;14.05;;
21162;SDS011;10739;52.198;20.908;2023-07-13T02:35:46;20.60;;;14.15;;
21162;SDS011;10739;52.198;20.908;2023-07-13T02:38:14;17.05;;;14.38;;
21162;SDS011;10739;52.198;20.908;2023-07-13T02:40:40;16.98;;;15.02;;
21162;SDS011;10739;52.198;20.908;2023-07-13T02:43:07;17.60;;;13.93;;
21162;SDS011;10739;52.198;20.908;2023-07-13T02:45:33;18.23;;;14.65;;
21162;SDS011;10739;52.198;20.908;2023-07-13T02:47:59;20.17;;;15.30;;
21162;SDS011;10739;52.198;20.908;2023-07-13T02:50:25;16.48;;;14.75;;
21162;SDS011;10739;52.198;20.908;2023-07-13T02:52:51;17.73;;;14.20;;
21162;SDS011;10739;52.198;20.908;2023-07-13T02:55:17;20.83;;;14.25;;
21162;SDS011;10739;52.198;20.908;2023-07-13T02:57:43;16.50;;;13.63;;
21162;SDS011;10739;52.198;20.908;2023-07-13T03:00:09;17.23;;;14.50;;
21162;SDS011;10739;52.198;20.908;2023-07-13T03:02:36;17.60;;;14.40;;
21162;SDS011;10739;52.198;20.908;2023-07-13T03:05:03;17.45;;;14.43;;
21162;SDS011;10739;52.198;20.908;2023-07-13T03:07:30;17.52;;;14.45;;
21162;SDS011;10739;52.198;20.908;2023-07-13T03:09:56;21.42;;;14.98;;
21162;SDS011;10739;52.198;20.908;2023-07-13T03:12:23;19.33;;;15.65;;
21162;SDS011;10739;52.198;20.908;2023-07-13T03:14:50;18.05;;;16.02;;
21162;SDS011;10739;52.198;20.908;2023-07-13T03:17:17;19.80;;;14.65;;
21162;SDS011;10739;52.198;20.908;2023-07-13T03:19:43;21.38;;;14.85;;
21162;SDS011;10739;52.198;20.908;2023-07-13T03:22:09;18.38;;;14.35;;
21162;SDS011;10739;52.198;20.908;2023-07-13T03:24:35;18.55;;;14.18;;
21162;SDS011;10739;52.198;20.908;2023-07-13T03:27:03;16.63;;;14.55;;
21162;SDS011;10739;52.198;20.908;2023-07-13T03:29:31;21.85;;;15.20;;
21162;SDS011;10739;52.198;20.908;2023-07-13T03:31:57;20.83;;;15.07;;
21162;SDS011;10739;52.198;20.908;2023-07-13T03:34:23;19.65;;;15.35;;
21162;SDS011;10739;52.198;20.908;2023-07-13T03:36:50;20.63;;;15.30;;
21162;SDS011;10739;52.198;20.908;2023-07-13T03:39:20;17.48;;;14.73;;
21162;SDS011;10739;52.198;20.908;2023-07-13T03:41:46;16.55;;;14.80;;
21162;SDS011;10739;52.198;20.908;2023-07-13T03:44:12;16.65;;;14.85;;
21162;SDS011;10739;52.198;20.908;2023-07-13T03:46:43;20.45;;;15.15;;
21162;SDS011;10739;52.198;20.908;2023-07-13T03:49:09;16.90;;;14.77;;
21162;SDS011;10739;52.198;20.908;2023-07-13T03:51:36;21.23;;;15.32;;
21162;SDS011;10739;52.198;20.908;2023-07-13T03:54:02;24.73;;;16.38;;
21162;SDS011;10739;52.198;20.908;2023-07-13T03:56:29;22.35;;;16.50;;
21162;SDS011;10739;52.198;20.908;2023-07-13T03:58:58;20.20;;;15.48;;
21162;SDS011;10739;52.198;20.908;2023-07-13T04:01:24;17.17;;;14.50;;
21162;SDS011;10739;52.198;20.908;2023-07-13T04:03:50;20.67;;;15.18;;
21162;SDS011;10739;52.198;20.908;2023-07-13T04:06:18;18.75;;;15.50;;
21162;SDS011;10739;52.198;20.908;2023-07-13T04:08:50;17.38;;;14.27;;
21162;SDS011;10739;52.198;20.908;2023-07-13T04:11:20;16.63;;;14.52;;
21162;SDS011;10739;52.198;20.908;2023-07-13T04:13:49;18.70;;;15.93;;
21162;SDS011;10739;52.198;20.908;2023-07-13T04:16:16;18.52;;;15.40;;
21162;SDS011;10739;52.198;20.908;2023-07-13T04:18:44;27.83;;;16.30;;
21162;SDS011;10739;52.198;20.908;2023-07-13T04:21:11;19.23;;;16.20;;
21162;SDS011;10739;52.198;20.908;2023-07-13T04:23:38;23.77;;;15.63;;
21162;SDS011;10739;52.198;20.908;2023-07-13T04:26:05;20.85;;;17.50;;
21162;SDS011;10739;52.198;20.908;2023-07-13T04:28:32;25.98;;;16.95;;
21162;SDS011;10739;52.198;20.908;2023-07-13T04:30:59;19.67;;;14.60;;
21162;SDS011;10739;52.198;20.908;2023-07-13T04:33:26;24.30;;;16.10;;
21162;SDS011;10739;52.198;20.908;2023-07-13T04:35:53;20.80;;;16.10;;
21162;SDS011;10739;52.198;20.908;2023-07-13T04:38:25;19.50;;;14.77;;
21162;SDS011;10739;52.198;20.908;2023-07-13T04:40:57;18.73;;;15.25;;
21162;SDS011;10739;52.198;20.908;2023-07-13T04:43:27;15.82;;;13.98;;
21162;SDS011;10739;52.198;20.908;2023-07-13T04:45:54;26.02;;;15.65;;
21162;SDS011;10739;52.198;20.908;2023-07-13T04:48:22;24.33;;;14.75;;
21162;SDS011;10739;52.198;20.908;2023-07-13T04:50:54;22.95;;;15.10;;
21162;SDS011;10739;52.198;20.908;2023-07-13T04:53:22;20.38;;;14.30;;
21162;SDS011;10739;52.198;20.908;2023-07-13T04:55:49;21.88;;;13.93;;
21162;SDS011;10739;52.198;20.908;2023-07-13T04:58:15;19.55;;;14.60;;
21162;SDS011;10739;52.198;20.908;2023-07-13T05:00:41;20.65;;;14.75;;
21162;SDS011;10739;52.198;20.908;2023-07-13T05:03:08;20.77;;;15.95;;
21162;SDS011;10739;52.198;20.908;2023-07-13T05:05:34;20.08;;;16.38;;
21162;SDS011;10739;52.198;20.908;2023-07-13T05:08:00;20.77;;;15.70;;
21162;SDS011;10739;52.198;20.908;2023-07-13T05:10:27;21.70;;;15.88;;
21162;SDS011;10739;52.198;20.908;2023-07-13T05:12:53;19.17;;;15.77;;
21162;SDS011;10739;52.198;20.908;2023-07-13T05:15:23;20.52;;;15.70;;
21162;SDS011;10739;52.198;20.908;2023-07-13T05:17:50;20.58;;;16.30;;
21162;SDS011;10739;52.198;20.908;2023-07-13T05:20:17;26.75;;;16.25;;
21162;SDS011;10739;52.198;20.908;2023-07-13T05:22:44;21.13;;;16.33;;
21162;SDS011;10739;52.198;20.908;2023-07-13T05:25:14;21.02;;;16.15;;
21162;SDS011;10739;52.198;20.908;2023-07-13T05:27:40;22.08;;;16.13;;
21162;SDS011;10739;52.198;20.908;2023-07-13T05:30:07;24.58;;;16.55;;
21162;SDS011;10739;52.198;20.908;2023-07-13T05:32:36;19.15;;;15.55;;
21162;SDS011;10739;52.198;20.908;2023-07-13T05:35:02;25.50;;;17.73;;
21162;SDS011;10739;52.198;20.908;2023-07-13T05:37:29;25.38;;;17.33;;
21162;SDS011;10739;52.198;20.908;2023-07-13T05:39:54;24.13;;;17.45;;
21162;SDS011;10739;52.198;20.908;2023-07-13T05:42:21;25.27;;;16.83;;
21162;SDS011;10739;52.198;20.908;2023-07-13T05:44:47;23.90;;;16.83;;
21162;SDS011;10739;52.198;20.908;2023-07-13T05:47:13;25.85;;;17.38;;
21162;SDS011;10739;52.198;20.908;2023-07-13T05:49:40;23.13;;;16.75;;
21162;SDS011;10739;52.198;20.908;2023-07-13T05:52:06;24.85;;;17.15;;
21162;SDS011;10739;52.198;20.908;2023-07-13T05:54:33;27.33;;;16.23;;
21162;SDS011;10739;52.198;20.908;2023-07-13T05:56:59;28.23;;;17.27;;
21162;SDS011;10739;52.198;20.908;2023-07-13T05:59:25;24.67;;;16.45;;
21162;SDS011;10739;52.198;20.908;2023-07-13T06:01:51;32.42;;;17.10;;
21162;SDS011;10739;52.198;20.908;2023-07-13T06:04:18;24.38;;;15.88;;
21162;SDS011;10739;52.198;20.908;2023-07-13T06:06:45;25.08;;;15.43;;
21162;SDS011;10739;52.198;20.908;2023-07-13T06:09:11;20.80;;;15.70;;
21162;SDS011;10739;52.198;20.908;2023-07-13T06:11:38;18.95;;;15.10;;
21162;SDS011;10739;52.198;20.908;2023-07-13T06:14:04;21.05;;;14.07;;
21162;SDS011;10739;52.198;20.908;2023-07-13T06:16:30;23.10;;;15.20;;
21162;SDS011;10739;52.198;20.908;2023-07-13T06:18:57;17.52;;;14.07;;
21162;SDS011;10739;52.198;20.908;2023-07-13T06:21:23;20.52;;;14.45;;
21162;SDS011;10739;52.198;20.908;2023-07-13T06:23:50;21.08;;;13.85;;
21162;SDS011;10739;52.198;20.908;2023-07-13T06:26:18;17.95;;;13.70;;
21162;SDS011;10739;52.198;20.908;2023-07-13T06:28:45;22.13;;;14.60;;
21162;SDS011;10739;52.198;20.908;2023-07-13T06:31:12;22.08;;;14.10;;
21162;SDS011;10739;52.198;20.908;2023-07-13T06:33:40;19.83;;;13.13;;
21162;SDS011;10739;52.198;20.908;2023-07-13T06:36:07;15.18;;;12.55;;
21162;SDS011;10739;52.198;20.908;2023-07-13T06:38:34;13.27;;;11.27;;
21162;SDS011;10739;52.198;20.908;2023-07-13T06:41:01;14.60;;;9.73;;
21162;SDS011;10739;52.198;20.908;2023-07-13T06:43:27;13.27;;;9.95;;
21162;SDS011;10739;52.198;20.908;2023-07-13T06:45:55;10.25;;;8.00;;
21162;SDS011;10739;52.198;20.908;2023-07-13T06:48:21;11.95;;;7.63;;
21162;SDS011;10739;52.198;20.908;2023-07-13T06:50:48;10.88;;;7.95;;
21162;SDS011;10739;52.198;20.908;2023-07-13T06:53:17;14.45;;;10.20;;
21162;SDS011;10739;52.198;20.908;2023-07-13T06:55:45;10.88;;;7.97;;
21162;SDS011;10739;52.198;20.908;2023-07-13T06:58:11;12.25;;;8.98;;
21162;SDS011;10739;52.198;20.908;2023-07-13T07:00:38;14.32;;;8.73;;
21162;SDS011;10739;52.198;20.908;2023-07-13T07:03:05;13.70;;;9.43;;
21162;SDS011;10739;52.198;20.908;2023-07-13T07:05:31;13.23;;;7.45;;
21162;SDS011;10739;52.198;20.908;2023-07-13T07:07:58;8.88;;;6.85;;
21162;SDS011;10739;52.198;20.908;2023-07-13T07:10:25;9.43;;;7.05;;
21162;SDS011;10739;52.198;20.908;2023-07-13T07:12:52;6.88;;;5.20;;
21162;SDS011;10739;52.198;20.908;2023-07-13T07:15:18;8.35;;;5.10;;
21162;SDS011;10739;52.198;20.908;2023-07-13T07:17:44;6.03;;;4.05;;
21162;SDS011;10739;52.198;20.908;2023-07-13T07:20:11;5.38;;;3.70;;
21162;SDS011;10739;52.198;20.908;2023-07-13T07:22:38;7.72;;;4.78;;
21162;SDS011;10739;52.198;20.908;2023-07-13T07:25:05;11.48;;;5.43;;
21162;SDS011;10739;52.198;20.908;2023-07-13T07:27:31;9.45;;;5.78;;
21162;SDS011;10739;52.198;20.908;2023-07-13T07:29:59;11.18;;;8.23;;
21162;SDS011;10739;52.198;20.908;2023-07-13T07:32:25;6.22;;;5.07;;
21162;SDS011;10739;52.198;20.908;2023-07-13T07:34:56;6.82;;;6.13;;
21162;SDS011;10739;52.198;20.908;2023-07-13T07:37:23;7.35;;;6.15;;
21162;SDS011;10739;52.198;20.908;2023-07-13T07:39:50;8.82;;;6.53;;
21162;SDS011;10739;52.198;20.908;2023-07-13T07:42:16;8.32;;;5.50;;
21162;SDS011;10739;52.198;20.908;2023-07-13T07:44:42;7.07;;;5.80;;
21162;SDS011;10739;52.198;20.908;2023-07-13T07:47:08;9.43;;;5.72;;
21162;SDS011;10739;52.198;20.908;2023-07-13T07:49:35;5.22;;;4.72;;
21162;SDS011;10739;52.198;20.908;2023-07-13T07:52:02;6.13;;;4.68;;
21162;SDS011;10739;52.198;20.908;2023-07-13T07:54:28;7.18;;;4.38;;
21162;SDS011;10739;52.198;20.908;2023-07-13T07:56:54;5.85;;;3.83;;
21162;SDS011;10739;52.198;20.908;2023-07-13T07:59:21;5.50;;;3.80;;
21162;SDS011;10739;52.198;20.908;2023-07-13T08:01:47;8.48;;;4.55;;
21162;SDS011;10739;52.198;20.908;2023-07-13T08:04:16;6.88;;;4.68;;
21162;SDS011;10739;52.198;20.908;2023-07-13T08:06:42;9.95;;;4.85;;
21162;SDS011;10739;52.198;20.908;2023-07-13T08:09:08;7.75;;;4.63;;
21162;SDS011;10739;52.198;20.908;2023-07-13T08:11:34;10.57;;;4.75;;
21162;SDS011;10739;52.198;20.908;2023-07-13T08:14:00;10.55;;;5.07;;
21162;SDS011;10739;52.198;20.908;2023-07-13T08:16:27;6.90;;;4.88;;
21162;SDS011;10739;52.198;20.908;2023-07-13T08:18:53;8.38;;;3.92;;
21162;SDS011;10739;52.198;20.908;2023-07-13T08:21:20;6.47;;;4.30;;
21162;SDS011;10739;52.198;20.908;2023-07-13T08:23:47;10.32;;;4.90;;
21162;SDS011;10739;52.198;20.908;2023-07-13T08:26:13;4.78;;;4.28;;
21162;SDS011;10739;52.198;20.908;2023-07-13T08:28:39;7.28;;;4.35;;
21162;SDS011;10739;52.198;20.908;2023-07-13T08:31:06;9.95;;;5.05;;
21162;SDS011;10739;52.198;20.908;2023-07-13T08:33:34;6.60;;;5.43;;
21162;SDS011;10739;52.198;20.908;2023-07-13T08:36:03;8.38;;;5.60;;
21162;SDS011;10739;52.198;20.908;2023-07-13T08:38:30;9.55;;;5.30;;
21162;SDS011;10739;52.198;20.908;2023-07-13T08:40:56;7.22;;;5.15;;
21162;SDS011;10739;52.198;20.908;2023-07-13T08:43:31;5.07;;;4.68;;
21162;SDS011;10739;52.198;20.908;2023-07-13T08:49:02;8.45;;;5.28;;
21162;SDS011;10739;52.198;20.908;2023-07-13T08:51:53;8.18;;;5.20;;
21162;SDS011;10739;52.198;20.908;2023-07-13T08:54:32;8.90;;;5.97;;
21162;SDS011;10739;52.198;20.908;2023-07-13T08:57:15;8.13;;;6.13;;
21162;SDS011;10739;52.198;20.908;2023-07-13T08:59:46;6.45;;;5.85;;
21162;SDS011;10739;52.198;20.908;2023-07-13T09:05:12;7.28;;;6.55;;
21162;SDS011;10739;52.198;20.908;2023-07-13T09:16:36;10.38;;;6.22;;
21162;SDS011;10739;52.198;20.908;2023-07-13T09:19:04;7.28;;;6.18;;
21162;SDS011;10739;52.198;20.908;2023-07-13T09:21:37;7.35;;;6.40;;
21162;SDS011;10739;52.198;20.908;2023-07-13T09:27:12;10.10;;;7.18;;
21162;SDS011;10739;52.198;20.908;2023-07-13T09:29:56;10.13;;;6.57;;
21162;SDS011;10739;52.198;20.908;2023-07-13T09:32:43;7.40;;;6.63;;
21162;SDS011;10739;52.198;20.908;2023-07-13T09:35:17;7.05;;;6.35;;
21162;SDS011;10739;52.198;20.908;2023-07-13T09:37:56;8.90;;;6.78;;
21162;SDS011;10739;52.198;20.908;2023-07-13T09:40:36;7.38;;;6.50;;
21162;SDS011;10739;52.198;20.908;2023-07-13T09:43:38;11.13;;;7.15;;
21162;SDS011;10739;52.198;20.908;2023-07-13T09:46:04;8.45;;;6.60;;
21162;SDS011;10739;52.198;20.908;2023-07-13T09:48:47;12.82;;;7.18;;
21162;SDS011;10739;52.198;20.908;2023-07-13T09:51:14;16.02;;;6.68;;
21162;SDS011;10739;52.198;20.908;2023-07-13T09:53:42;17.75;;;6.07;;
21162;SDS011;10739;52.198;20.908;2023-07-13T09:56:22;9.50;;;5.68;;
21162;SDS011;10739;52.198;20.908;2023-07-13T09:58:55;10.75;;;4.68;;
21162;SDS011;10739;52.198;20.908;2023-07-13T10:01:31;5.45;;;4.28;;
21162;SDS011;10739;52.198;20.908;2023-07-13T10:04:12;9.75;;;4.60;;
21162;SDS011;10739;52.198;20.908;2023-07-13T10:06:46;9.90;;;5.13;;
21162;SDS011;10739;52.198;20.908;2023-07-13T10:09:16;7.13;;;4.90;;
21162;SDS011;10739;52.198;20.908;2023-07-13T10:11:44;11.55;;;5.43;;
21162;SDS011;10739;52.198;20.908;2023-07-13T10:14:17;8.38;;;4.72;;
21162;SDS011;10739;52.198;20.908;2023-07-13T10:16:52;15.20;;;4.85;;
21162;SDS011;10739;52.198;20.908;2023-07-13T10:19:29;11.75;;;4.82;;
21162;SDS011;10739;52.198;20.908;2023-07-13T10:22:01;7.72;;;4.65;;
21162;SDS011;10739;52.198;20.908;2023-07-13T10:24:46;11.30;;;5.25;;
21162;SDS011;10739;52.198;20.908;2023-07-13T10:27:16;8.30;;;5.55;;
21162;SDS011;10739;52.198;20.908;2023-07-13T10:32:37;12.38;;;5.68;;
21162;SDS011;10739;52.198;20.908;2023-07-13T10:35:03;14.48;;;5.68;;
21162;SDS011;10739;52.198;20.908;2023-07-13T10:37:38;16.65;;;6.05;;
21162;SDS011;10739;52.198;20.908;2023-07-13T10:40:47;12.82;;;6.38;;
21162;SDS011;10739;52.198;20.908;2023-07-13T10:43:53;28.80;;;8.30;;
21162;SDS011;10739;52.198;20.908;2023-07-13T10:46:23;20.75;;;9.20;;
21162;SDS011;10739;52.198;20.908;2023-07-13T10:49:01;26.60;;;11.93;;
21162;SDS011;10739;52.198;20.908;2023-07-13T10:51:32;20.33;;;9.45;;
21162;SDS011;10739;52.198;20.908;2023-07-13T10:54:16;26.40;;;11.60;;
21162;SDS011;10739;52.198;20.908;2023-07-13T10:56:53;13.23;;;7.35;;
21162;SDS011;10739;52.198;20.908;2023-07-13T10:59:33;15.48;;;8.63;;
21162;SDS011;10739;52.198;20.908;2023-07-13T11:04:53;17.27;;;8.65;;
21162;SDS011;10739;52.198;20.908;2023-07-13T11:07:21;11.38;;;7.65;;
21162;SDS011;10739;52.198;20.908;2023-07-13T11:09:57;14.55;;;8.05;;
21162;SDS011;10739;52.198;20.908;2023-07-13T11:12:50;13.40;;;8.02;;
21162;SDS011;10739;52.198;20.908;2023-07-13T11:15:39;13.27;;;8.27;;
21162;SDS011;10739;52.198;20.908;2023-07-13T11:18:21;12.38;;;9.27;;
21162;SDS011;10739;52.198;20.908;2023-07-13T11:20:50;16.05;;;8.95;;
21162;SDS011;10739;52.198;20.908;2023-07-13T11:23:21;14.02;;;8.38;;
21162;SDS011;10739;52.198;20.908;2023-07-13T11:25:56;12.70;;;9.32;;
21162;SDS011;10739;52.198;20.908;2023-07-13T11:28:25;18.85;;;9.10;;
21162;SDS011;10739;52.198;20.908;2023-07-13T11:36:19;15.20;;;9.32;;
21162;SDS011;10739;52.198;20.908;2023-07-13T11:41:43;10.27;;;8.07;;
21162;SDS011;10739;52.198;20.908;2023-07-13T11:44:17;9.82;;;7.38;;
21162;SDS011;10739;52.198;20.908;2023-07-13T11:46:54;14.23;;;6.88;;
21162;SDS011;10739;52.198;20.908;2023-07-13T11:49:26;17.90;;;7.70;;
21162;SDS011;10739;52.198;20.908;2023-07-13T11:51:56;13.43;;;7.05;;
21162;SDS011;10739;52.198;20.908;2023-07-13T11:56:57;14.07;;;7.18;;
21162;SDS011;10739;52.198;20.908;2023-07-13T11:59:42;9.82;;;6.57;;
21162;SDS011;10739;52.198;20.908;2023-07-13T12:02:14;12.70;;;6.80;;
21162;SDS011;10739;52.198;20.908;2023-07-13T12:04:55;10.70;;;6.20;;
21162;SDS011;10739;52.198;20.908;2023-07-13T12:07:22;14.95;;;7.05;;
21162;SDS011;10739;52.198;20.908;2023-07-13T12:09:49;8.52;;;6.18;;
21162;SDS011;10739;52.198;20.908;2023-07-13T12:12:21;8.45;;;5.63;;
21162;SDS011;10739;52.198;20.908;2023-07-13T12:14:51;8.93;;;5.82;;
21162;SDS011;10739;52.198;20.908;2023-07-13T12:17:19;6.78;;;4.95;;
21162;SDS011;10739;52.198;20.908;2023-07-13T12:19:48;10.05;;;6.32;;
21162;SDS011;10739;52.198;20.908;2023-07-13T12:22:19;8.40;;;5.65;;
21162;SDS011;10739;52.198;20.908;2023-07-13T12:24:46;13.23;;;6.53;;
21162;SDS011;10739;52.198;20.908;2023-07-13T12:29:58;10.77;;;6.43;;
21162;SDS011;10739;52.198;20.908;2023-07-13T12:32:28;7.18;;;6.45;;
21162;SDS011;10739;52.198;20.908;2023-07-13T12:34:57;11.07;;;6.80;;
21162;SDS011;10739;52.198;20.908;2023-07-13T12:37:42;10.18;;;6.40;;
21162;SDS011;10739;52.198;20.908;2023-07-13T12:40:17;14.43;;;6.65;;
21162;SDS011;10739;52.198;20.908;2023-07-13T12:42:51;10.13;;;6.45;;
21162;SDS011;10739;52.198;20.908;2023-07-13T12:45:22;10.35;;;7.15;;
21162;SDS011;10739;52.198;20.908;2023-07-13T12:47:57;10.68;;;7.20;;
21162;SDS011;10739;52.198;20.908;2023-07-13T12:50:46;10.52;;;7.88;;
21162;SDS011;10739;52.198;20.908;2023-07-13T12:53:19;12.65;;;7.95;;
21162;SDS011;10739;52.198;20.908;2023-07-13T12:55:57;14.10;;;7.20;;
21162;SDS011;10739;52.198;20.908;2023-07-13T12:58:38;14.75;;;7.60;;
21162;SDS011;10739;52.198;20.908;2023-07-13T13:01:12;13.07;;;6.63;;
21162;SDS011;10739;52.198;20.908;2023-07-13T13:03:45;17.85;;;7.60;;
21162;SDS011;10739;52.198;20.908;2023-07-13T13:08:56;16.83;;;8.05;;
21162;SDS011;10739;52.198;20.908;2023-07-13T13:11:24;12.90;;;7.40;;
21162;SDS011;10739;52.198;20.908;2023-07-13T13:13:52;9.45;;;6.63;;
21162;SDS011;10739;52.198;20.908;2023-07-13T13:18:52;12.63;;;7.45;;
21162;SDS011;10739;52.198;20.908;2023-07-13T13:21:24;18.38;;;7.93;;
21162;SDS011;10739;52.198;20.908;2023-07-13T13:23:51;18.63;;;8.50;;
21162;SDS011;10739;52.198;20.908;2023-07-13T13:26:19;11.40;;;7.82;;
21162;SDS011;10739;52.198;20.908;2023-07-13T13:28:47;11.40;;;7.22;;
21162;SDS011;10739;52.198;20.908;2023-07-13T13:31:15;11.30;;;7.30;;
21162;SDS011;10739;52.198;20.908;2023-07-13T13:33:42;12.35;;;7.75;;
21162;SDS011;10739;52.198;20.908;2023-07-13T13:36:14;11.25;;;6.90;;
21162;SDS011;10739;52.198;20.908;2023-07-13T13:38:47;12.82;;;7.80;;
21162;SDS011;10739;52.198;20.908;2023-07-13T13:41:15;17.20;;;8.07;;
21162;SDS011;10739;52.198;20.908;2023-07-13T13:43:43;13.35;;;7.95;;
21162;SDS011;10739;52.198;20.908;2023-07-13T13:48:50;10.38;;;8.18;;
21162;SDS011;10739;52.198;20.908;2023-07-13T13:51:20;14.15;;;8.57;;
21162;SDS011;10739;52.198;20.908;2023-07-13T13:53:49;8.73;;;6.97;;
21162;SDS011;10739;52.198;20.908;2023-07-13T13:56:15;10.55;;;8.02;;
21162;SDS011;10739;52.198;20.908;2023-07-13T13:58:44;10.68;;;7.05;;
21162;SDS011;10739;52.198;20.908;2023-07-13T14:01:18;10.60;;;6.40;;
21162;SDS011;10739;52.198;20.908;2023-07-13T14:03:47;7.97;;;6.20;;
21162;SDS011;10739;52.198;20.908;2023-07-13T14:06:14;8.90;;;7.00;;
21162;SDS011;10739;52.198;20.908;2023-07-13T14:08:41;9.18;;;6.30;;
21162;SDS011;10739;52.198;20.908;2023-07-13T14:11:12;9.23;;;7.57;;
21162;SDS011;10739;52.198;20.908;2023-07-13T14:13:45;11.55;;;7.43;;
21162;SDS011;10739;52.198;20.908;2023-07-13T14:16:19;11.07;;;8.40;;
21162;SDS011;10739;52.198;20.908;2023-07-13T14:18:48;11.73;;;8.45;;
21162;SDS011;10739;52.198;20.908;2023-07-13T14:21:15;15.48;;;9.20;;
21162;SDS011;10739;52.198;20.908;2023-07-13T14:23:45;16.88;;;8.57;;
21162;SDS011;10739;52.198;20.908;2023-07-13T14:26:14;17.83;;;9.45;;
21162;SDS011;10739;52.198;20.908;2023-07-13T14:28:48;11.93;;;10.10;;
21162;SDS011;10739;52.198;20.908;2023-07-13T14:31:18;10.73;;;9.63;;
21162;SDS011;10739;52.198;20.908;2023-07-13T14:33:46;13.15;;;9.82;;
21162;SDS011;10739;52.198;20.908;2023-07-13T14:38:58;10.60;;;9.48;;
21162;SDS011;10739;52.198;20.908;2023-07-13T14:41:27;11.40;;;10.20;;
21162;SDS011;10739;52.198;20.908;2023-07-13T14:43:53;17.67;;;10.45;;
21162;SDS011;10739;52.198;20.908;2023-07-13T14:46:29;12.73;;;10.77;;
21162;SDS011;10739;52.198;20.908;2023-07-13T14:49:03;13.35;;;10.13;;
21162;SDS011;10739;52.198;20.908;2023-07-13T14:51:50;10.40;;;9.32;;
21162;SDS011;10739;52.198;20.908;2023-07-13T14:54:16;11.13;;;9.15;;
21162;SDS011;10739;52.198;20.908;2023-07-13T14:56:43;15.07;;;9.82;;
21162;SDS011;10739;52.198;20.908;2023-07-13T14:59:09;10.25;;;9.20;;
21162;SDS011;10739;52.198;20.908;2023-07-13T15:01:37;13.52;;;9.55;;
21162;SDS011;10739;52.198;20.908;2023-07-13T15:04:05;10.77;;;9.65;;
21162;SDS011;10739;52.198;20.908;2023-07-13T15:06:35;12.32;;;9.43;;
21162;SDS011;10739;52.198;20.908;2023-07-13T15:09:20;13.75;;;10.50;;
21162;SDS011;10739;52.198;20.908;2023-07-13T15:11:46;17.45;;;10.40;;
21162;SDS011;10739;52.198;20.908;2023-07-13T15:14:12;18.15;;;11.02;;
21162;SDS011;10739;52.198;20.908;2023-07-13T15:16:38;18.73;;;11.20;;
21162;SDS011;10739;52.198;20.908;2023-07-13T15:19:05;16.05;;;11.63;;